Time;durP1;ratioP1;P1;durP2;ratioP2;P2;SDS_P1;SDS_P2;PMS_P1;PMS_P2;Temp;Humidity;BMP_temperature;BMP_pressure;BME280_temperature;BME280_humidity;BME280_pressure;Samples;Min_cycle;Max_cycle;Signal;HPM_P1;HPM_P2
2022/12/19 00:01:17;;;;;;;57.77;35.17;;;0.00;99.90;;;;;;5051909;28;20510;-75
2022/12/19 00:03:47;;;;;;;64.57;37.63;;;0.00;99.90;;;;;;5051357;28;20119;-76
2022/12/19 00:06:14;;;;;;;64.57;39.50;;;0.10;99.90;;;;;;5042782;28;20041;-80
2022/12/19 00:08:45;;;;;;;60.40;36.03;;;0.10;99.90;;;;;;5045388;28;20068;-76
2022/12/19 00:11:12;;;;;;;60.38;36.95;;;0.10;99.90;;;;;;5050444;28;20132;-75
2022/12/19 00:13:38;;;;;;;65.30;38.60;;;0.10;99.90;;;;;;5051595;28;20044;-75
2022/12/19 00:16:07;;;;;;;58.60;36.23;;;0.10;99.90;;;;;;5051197;28;20120;-74
2022/12/19 00:18:32;;;;;;;62.50;37.10;;;0.30;99.90;;;;;;5040659;28;20372;-74
2022/12/19 00:21:01;;;;;;;61.70;38.80;;;0.10;99.90;;;;;;5051310;28;20056;-78
2022/12/19 00:23:29;;;;;;;62.73;37.53;;;0.20;99.90;;;;;;5050971;28;20044;-75
2022/12/19 00:25:55;;;;;;;66.33;38.57;;;0.30;99.90;;;;;;5051806;28;20049;-77
2022/12/19 00:28:21;;;;;;;59.60;37.03;;;0.20;99.90;;;;;;5035625;28;20044;-76
2022/12/19 00:30:47;;;;;;;64.67;39.53;;;0.20;99.90;;;;;;5051164;28;20589;-75
2022/12/19 00:33:12;;;;;;;63.27;39.30;;;0.20;99.90;;;;;;5050392;28;20084;-75
2022/12/19 00:35:38;;;;;;;66.63;38.70;;;0.30;99.90;;;;;;5051040;28;20419;-75
2022/12/19 00:38:04;;;;;;;64.67;38.77;;;0.30;99.90;;;;;;5019536;28;20039;-76
2022/12/19 00:40:29;;;;;;;63.33;39.77;;;0.30;99.90;;;;;;5051570;28;20044;-75
2022/12/19 00:42:55;;;;;;;77.17;66.57;;;0.30;99.90;;;;;;5049811;28;20563;-75
2022/12/19 00:45:21;;;;;;;65.67;41.33;;;0.40;99.90;;;;;;5051322;28;20052;-76
2022/12/19 00:47:46;;;;;;;66.90;39.50;;;0.40;99.90;;;;;;5034756;28;20035;-75
2022/12/19 00:50:12;;;;;;;64.20;42.17;;;0.40;99.90;;;;;;5051421;28;20040;-76
2022/12/19 00:52:38;;;;;;;67.93;41.53;;;0.40;99.90;;;;;;5050345;28;20102;-75
2022/12/19 00:55:04;;;;;;;63.40;41.23;;;0.40;99.90;;;;;;5050439;28;20075;-78
2022/12/19 00:57:30;;;;;;;70.30;42.67;;;0.40;99.90;;;;;;5033845;28;20041;-76
2022/12/19 00:59:56;;;;;;;69.70;45.23;;;0.40;99.90;;;;;;5050636;28;20052;-76
2022/12/19 01:02:21;;;;;;;68.33;40.83;;;0.40;99.90;;;;;;5050218;28;20525;-75
2022/12/19 01:04:47;;;;;;;67.17;39.60;;;0.50;99.90;;;;;;5050670;28;20067;-75
2022/12/19 01:07:12;;;;;;;64.23;38.90;;;0.50;99.90;;;;;;5033675;28;20033;-75
2022/12/19 01:09:38;;;;;;;72.57;59.70;;;0.50;99.90;;;;;;5050118;28;20053;-75
2022/12/19 01:14:51;;;;;;;71.97;41.40;;;0.50;99.90;;;;;;5050942;28;20095;-76
2022/12/19 01:17:17;;;;;;;63.10;39.83;;;0.50;99.90;;;;;;5033392;28;20084;-76
2022/12/19 01:19:43;;;;;;;71.23;41.37;;;0.60;99.90;;;;;;5049991;28;20080;-76
2022/12/19 01:22:09;;;;;;;65.90;38.53;;;0.60;99.90;;;;;;5048790;28;20071;-76
2022/12/19 01:24:34;;;;;;;66.57;39.53;;;0.70;99.90;;;;;;5049548;28;20480;-76
2022/12/19 01:27:00;;;;;;;67.93;40.93;;;0.70;99.90;;;;;;5034041;28;20056;-76
2022/12/19 01:29:26;;;;;;;98.17;87.87;;;0.70;99.90;;;;;;5048309;28;20064;-75
2022/12/19 01:31:51;;;;;;;68.53;40.00;;;0.80;99.90;;;;;;5050291;28;20048;-77
2022/12/19 01:34:17;;;;;;;65.27;40.10;;;0.80;99.90;;;;;;5048905;28;20110;-78
2022/12/19 01:36:43;;;;;;;66.97;40.27;;;0.80;99.90;;;;;;5036040;28;20494;-76
2022/12/19 01:39:08;;;;;;;68.17;40.67;;;0.80;99.90;;;;;;5049340;28;20040;-76
2022/12/19 01:41:34;;;;;;;63.60;38.77;;;0.80;99.90;;;;;;5032074;28;20048;-75
2022/12/19 01:44:03;;;;;;;71.57;50.10;;;0.80;99.90;;;;;;5049544;28;20041;-76
2022/12/19 01:46:39;;;;;;;67.20;48.10;;;0.90;99.90;;;;;;5036445;28;20310;-75
2022/12/19 01:49:11;;;;;;;71.57;40.77;;;1.00;99.90;;;;;;5047879;28;20052;-75
2022/12/19 01:51:42;;;;;;;62.10;37.87;;;1.00;99.90;;;;;;5050235;28;20114;-75
2022/12/19 01:54:12;;;;;;;66.57;50.28;;;1.00;99.90;;;;;;5049637;28;20073;-76
2022/12/19 01:56:43;;;;;;;67.30;41.67;;;1.00;99.90;;;;;;5035441;28;20052;-76
2022/12/19 01:59:15;;;;;;;69.18;38.55;;;1.00;99.90;;;;;;5047961;28;20041;-76
2022/12/19 02:01:41;;;;;;;62.38;38.47;;;1.10;99.90;;;;;;5049860;28;20437;-75
2022/12/19 02:04:07;;;;;;;62.30;41.33;;;1.10;99.90;;;;;;5049622;28;20087;-74
2022/12/19 02:06:34;;;;;;;65.63;40.00;;;1.50;99.90;;;;;;5035538;28;21122;-74
2022/12/19 02:09:00;;;;;;;65.97;40.47;;;1.10;99.90;;;;;;5047050;28;20120;-76
2022/12/19 02:11:26;;;;;;;72.70;44.87;;;1.10;99.90;;;;;;5031783;28;20446;-76
2022/12/19 02:13:51;;;;;;;74.67;41.73;;;1.20;99.90;;;;;;5049115;28;20072;-78
2022/12/19 02:16:35;;;;;;;84.37;57.57;;;1.00;99.90;;;;;;5038937;28;20221;-76
2022/12/19 02:19:23;;;;;;;113.17;94.80;;;1.00;99.90;;;;;;5047778;28;20045;-76
2022/12/19 02:21:56;;;;;;;85.87;46.17;;;1.00;99.90;;;;;;5049545;28;20051;-76
2022/12/19 02:24:27;;;;;;;84.73;45.83;;;1.10;99.90;;;;;;5049156;28;20047;-76
2022/12/19 02:26:56;;;;;;;84.97;49.60;;;1.00;99.90;;;;;;5033779;28;20504;-75
2022/12/19 02:30:07;;;;;;;88.33;48.70;;;1.00;99.90;;;;;;5048359;28;20502;-75
2022/12/19 02:32:55;;;;;;;90.65;48.40;;;1.00;99.90;;;;;;5046803;28;20040;-75
2022/12/19 02:35:45;;;;;;;93.10;52.90;;;1.00;99.90;;;;;;5049540;28;20083;-75
2022/12/19 02:38:27;;;;;;;102.40;56.30;;;1.00;99.90;;;;;;5032453;28;20124;-77
2022/12/19 02:41:03;;;;;;;90.60;49.07;;;1.00;99.90;;;;;;5049712;28;20546;-75
2022/12/19 02:43:32;;;;;;;103.63;69.80;;;1.00;99.90;;;;;;5048841;28;20051;-75
2022/12/19 02:46:02;;;;;;;95.60;51.83;;;1.00;99.90;;;;;;5048262;28;20056;-75
2022/12/19 02:48:28;;;;;;;97.67;51.73;;;1.10;99.90;;;;;;5032801;28;20514;-75
2022/12/19 02:50:54;;;;;;;94.27;52.27;;;1.00;99.90;;;;;;5049622;28;20045;-75
2022/12/19 02:53:20;;;;;;;104.70;55.23;;;1.00;99.90;;;;;;5048341;28;20041;-75
2022/12/19 02:56:13;;;;;;;112.73;58.47;;;1.00;99.90;;;;;;5049221;28;20045;-75
2022/12/19 02:58:50;;;;;;;130.93;94.10;;;1.00;99.90;;;;;;5044563;28;20069;-75
2022/12/19 03:01:35;;;;;;;122.10;65.40;;;1.00;99.90;;;;;;5052311;28;20036;-75
2022/12/19 03:04:25;;;;;;;116.20;58.13;;;1.00;99.90;;;;;;5051093;28;20033;-77
2022/12/19 03:06:53;;;;;;;124.13;63.30;;;0.90;99.90;;;;;;5037879;28;20088;-74
2022/12/19 03:09:25;;;;;;;128.93;71.53;;;1.00;99.90;;;;;;5052142;28;20088;-75
2022/12/19 03:11:59;;;;;;;134.10;62.93;;;1.00;99.90;;;;;;5052541;28;20051;-75
2022/12/19 03:14:26;;;;;;;134.03;66.07;;;1.00;99.90;;;;;;5051880;28;20072;-75
2022/12/19 03:16:52;;;;;;;128.00;70.40;;;1.10;99.90;;;;;;5036120;28;20049;-75
2022/12/19 03:19:18;;;;;;;120.37;66.83;;;1.10;99.90;;;;;;5051807;28;20052;-75
2022/12/19 03:21:47;;;;;;;128.97;69.67;;;1.20;99.90;;;;;;5050978;28;20127;-75
2022/12/19 03:24:13;;;;;;;119.43;69.67;;;1.20;99.90;;;;;;5050752;28;20509;-75
2022/12/19 03:27:00;;;;;;;121.23;64.10;;;1.50;99.90;;;;;;5038767;28;20037;-75
2022/12/19 03:29:36;;;;;;;130.53;63.90;;;1.30;99.90;;;;;;5052145;28;20045;-76
2022/12/19 03:32:06;;;;;;;124.67;64.37;;;1.30;99.90;;;;;;5052740;28;20490;-75
2022/12/19 03:34:38;;;;;;;132.33;64.03;;;1.40;99.90;;;;;;5050823;28;20057;-75
2022/12/19 03:37:08;;;;;;;129.97;74.80;;;1.70;99.90;;;;;;5036517;28;20044;-75
2022/12/19 03:39:34;;;;;;;129.60;75.37;;;1.40;99.90;;;;;;5051930;28;20482;-75
2022/12/19 03:44:49;;;;;;;127.67;68.97;;;1.50;99.90;;;;;;5052140;28;20071;-76
2022/12/19 03:47:31;;;;;;;123.40;73.67;;;1.60;99.90;;;;;;5035057;28;20072;-75
2022/12/19 03:49:57;;;;;;;131.40;67.43;;;1.60;99.90;;;;;;5052016;28;20483;-76
2022/12/19 03:52:45;;;;;;;129.53;64.23;;;1.60;99.90;;;;;;5051541;28;21901;-75
2022/12/19 03:55:53;;;;;;;137.07;76.03;;;1.60;99.90;;;;;;5052210;28;20047;-75
2022/12/19 03:58:27;;;;;;;143.43;93.47;;;1.60;99.90;;;;;;5012385;28;20569;-76
2022/12/19 04:00:54;;;;;;;157.37;112.70;;;1.70;99.90;;;;;;5029385;28;20041;-75
2022/12/19 04:03:21;;;;;;;136.63;75.33;;;1.70;99.90;;;;;;5041518;28;20068;-75
2022/12/19 04:05:48;;;;;;;144.93;79.57;;;1.80;99.90;;;;;;5051119;28;20390;-75
2022/12/19 04:08:14;;;;;;;161.63;108.73;;;1.70;99.90;;;;;;5033806;28;20041;-78
2022/12/19 04:10:50;;;;;;;148.60;73.27;;;1.80;99.90;;;;;;5050514;28;20045;-75
2022/12/19 04:13:24;;;;;;;140.27;70.33;;;1.80;99.90;;;;;;5050195;28;20118;-76
2022/12/19 04:16:14;;;;;;;149.73;74.40;;;1.80;99.90;;;;;;5051430;28;20453;-76
2022/12/19 04:18:43;;;;;;;159.00;79.57;;;1.80;99.90;;;;;;5043486;28;20037;-76
2022/12/19 04:21:17;;;;;;;140.73;73.97;;;1.80;99.90;;;;;;5050246;28;20049;-76
2022/12/19 04:23:49;;;;;;;146.10;70.93;;;1.80;99.90;;;;;;5051152;28;20048;-75
2022/12/19 04:26:17;;;;;;;147.27;67.33;;;1.90;99.90;;;;;;5024457;28;20081;-76
2022/12/19 04:28:48;;;;;;;132.93;73.77;;;1.90;99.90;;;;;;5045031;28;20049;-76
2022/12/19 04:31:15;;;;;;;167.05;149.05;;;2.40;99.90;;;;;;5050792;28;20524;-75
2022/12/19 04:33:41;;;;;;;140.70;67.47;;;2.00;99.90;;;;;;5050770;28;20395;-75
2022/12/19 04:36:09;;;;;;;131.27;77.37;;;2.00;99.90;;;;;;5051176;28;20045;-76
2022/12/19 04:38:34;;;;;;;118.13;64.50;;;2.00;99.90;;;;;;5035421;28;20361;-75
2022/12/19 04:41:00;;;;;;;121.33;65.90;;;2.10;99.90;;;;;;5051220;28;20047;-75
2022/12/19 04:43:26;;;;;;;123.57;64.97;;;2.00;99.90;;;;;;5050797;28;20394;-75
2022/12/19 04:45:51;;;;;;;126.67;69.63;;;2.10;99.90;;;;;;5051022;28;20491;-76
2022/12/19 04:48:17;;;;;;;130.13;76.43;;;2.20;99.90;;;;;;5034703;28;20049;-76
2022/12/19 04:50:43;;;;;;;125.53;70.90;;;2.10;99.90;;;;;;5050869;28;20059;-76
2022/12/19 04:53:08;;;;;;;135.13;67.57;;;2.10;99.90;;;;;;5050430;28;20066;-76
2022/12/19 04:55:35;;;;;;;147.97;102.87;;;2.20;99.90;;;;;;5050405;28;20132;-76
2022/12/19 04:58:00;;;;;;;141.60;81.17;;;2.10;99.90;;;;;;5033505;28;20153;-75
2022/12/19 05:00:26;;;;;;;137.83;87.73;;;2.10;99.90;;;;;;5051486;28;20111;-76
2022/12/19 05:02:52;;;;;;;159.10;72.87;;;2.20;99.90;;;;;;5050077;28;20111;-76
2022/12/19 05:05:17;;;;;;;141.47;72.57;;;2.10;99.90;;;;;;5050743;28;20045;-76
2022/12/19 05:07:43;;;;;;;140.83;72.17;;;2.20;99.90;;;;;;5033966;28;20036;-75
2022/12/19 05:10:09;;;;;;;142.10;70.93;;;2.20;99.90;;;;;;5051481;28;20055;-75
2022/12/19 05:12:35;;;;;;;134.10;76.53;;;2.30;99.90;;;;;;5049067;28;20037;-76
2022/12/19 05:15:00;;;;;;;137.80;76.57;;;2.20;99.90;;;;;;5050137;28;20529;-76
2022/12/19 05:17:26;;;;;;;138.00;94.40;;;2.50;99.90;;;;;;5015901;28;20040;-75
2022/12/19 05:19:52;;;;;;;164.20;127.87;;;2.30;99.90;;;;;;5050653;28;20037;-76
2022/12/19 05:22:17;;;;;;;140.40;74.03;;;2.30;99.90;;;;;;5045201;28;20045;-76
2022/12/19 05:24:43;;;;;;;149.23;74.70;;;2.40;99.90;;;;;;5042910;28;20053;-76
2022/12/19 05:27:09;;;;;;;160.33;74.57;;;2.40;99.90;;;;;;5031392;28;20045;-76
2022/12/19 05:29:34;;;;;;;166.03;75.60;;;2.40;99.90;;;;;;5047407;28;20099;-76
2022/12/19 05:32:00;;;;;;;163.90;77.93;;;2.30;99.90;;;;;;5047329;28;20053;-76
2022/12/19 05:34:26;;;;;;;151.63;75.33;;;2.40;99.90;;;;;;5046685;28;20091;-76
2022/12/19 05:36:51;;;;;;;151.53;76.60;;;2.50;99.90;;;;;;5029909;28;20375;-76
2022/12/19 05:39:17;;;;;;;145.13;71.47;;;2.50;99.90;;;;;;5046367;28;20128;-76
2022/12/19 05:41:43;;;;;;;158.50;72.47;;;2.60;99.90;;;;;;5047309;28;20092;-75
2022/12/19 05:44:09;;;;;;;146.27;101.43;;;2.50;99.90;;;;;;5047404;28;20450;-75
2022/12/19 05:46:35;;;;;;;148.43;70.77;;;2.70;99.90;;;;;;5035871;28;20706;-76
2022/12/19 05:49:00;;;;;;;143.27;69.57;;;2.70;99.90;;;;;;5047676;28;20074;-76
2022/12/19 05:51:26;;;;;;;135.77;70.67;;;2.70;99.90;;;;;;5049712;28;20053;-76
2022/12/19 05:53:52;;;;;;;146.87;74.33;;;2.80;99.90;;;;;;5049600;28;20052;-77
2022/12/19 05:56:20;;;;;;;144.90;71.73;;;2.70;99.90;;;;;;5038784;28;20241;-77
2022/12/19 05:58:46;;;;;;;122.83;86.40;;;2.80;99.90;;;;;;5043876;28;20387;-76
2022/12/19 06:01:17;;;;;;;144.23;64.93;;;2.90;99.90;;;;;;5050497;28;20124;-77
2022/12/19 06:03:43;;;;;;;129.13;63.20;;;2.90;99.90;;;;;;5049174;28;20430;-76
2022/12/19 06:06:13;;;;;;;125.77;61.90;;;2.90;99.90;;;;;;5044535;28;20416;-79
2022/12/19 06:08:39;;;;;;;111.03;56.17;;;2.90;99.90;;;;;;5040789;28;20478;-76
2022/12/19 06:11:07;;;;;;;103.13;53.17;;;3.00;99.90;;;;;;5048613;28;20037;-76
2022/12/19 06:13:33;;;;;;;104.10;50.77;;;3.00;99.90;;;;;;5048051;28;20036;-77
2022/12/19 06:16:04;;;;;;;106.47;53.20;;;3.00;99.90;;;;;;5049217;28;20443;-76
2022/12/19 06:18:30;;;;;;;91.55;45.40;;;3.20;99.90;;;;;;5031771;28;20032;-76
2022/12/19 06:21:01;;;;;;;87.37;46.20;;;3.10;99.90;;;;;;5049572;28;20047;-77
2022/12/19 06:23:29;;;;;;;80.05;39.65;;;3.10;99.90;;;;;;5047519;28;20081;-77
2022/12/19 06:25:59;;;;;;;88.10;47.70;;;3.20;99.90;;;;;;5050186;28;20388;-78
2022/12/19 06:28:26;;;;;;;86.17;46.60;;;3.20;99.90;;;;;;5024474;28;20165;-79
2022/12/19 06:30:54;;;;;;;80.20;46.17;;;3.30;99.90;;;;;;5048645;28;20391;-76
2022/12/19 06:33:19;;;;;;;75.83;43.57;;;3.40;99.90;;;;;;5045702;28;20040;-77
2022/12/19 06:35:45;;;;;;;79.57;45.23;;;3.40;99.90;;;;;;5049907;28;20119;-77
2022/12/19 06:38:11;;;;;;;79.90;44.07;;;3.40;99.90;;;;;;5033893;28;20049;-79
2022/12/19 06:43:27;;;;;;;77.78;42.22;;;3.40;99.90;;;;;;5048063;28;20056;-79
2022/12/19 06:45:55;;;;;;;83.10;48.80;;;3.50;99.90;;;;;;5048948;28;20041;-76
2022/12/19 06:48:21;;;;;;;80.23;42.67;;;3.40;99.90;;;;;;5032962;28;20537;-77
2022/12/19 06:50:47;;;;;;;68.33;40.63;;;3.50;99.90;;;;;;5049595;28;20041;-79
2022/12/19 06:53:12;;;;;;;70.77;41.27;;;3.80;99.90;;;;;;5047208;28;20149;-76
2022/12/19 06:55:38;;;;;;;62.10;38.73;;;3.70;99.90;;;;;;5049712;28;20088;-76
2022/12/19 06:58:03;;;;;;;60.53;44.00;;;3.70;99.90;;;;;;5031749;28;20049;-76
2022/12/19 07:00:29;;;;;;;57.57;35.80;;;3.80;99.90;;;;;;5049924;28;20129;-77
2022/12/19 07:02:56;;;;;;;57.80;36.37;;;3.80;99.90;;;;;;5048168;28;20475;-76
2022/12/19 07:05:22;;;;;;;63.13;36.57;;;3.80;99.90;;;;;;5049442;28;20462;-77
2022/12/19 07:07:48;;;;;;;83.03;74.83;;;3.80;99.90;;;;;;5031896;28;20078;-76
2022/12/19 07:10:14;;;;;;;62.93;36.00;;;3.80;99.90;;;;;;5048327;28;20102;-77
2022/12/19 07:12:40;;;;;;;59.17;34.33;;;3.80;99.90;;;;;;5047054;28;20029;-76
2022/12/19 07:15:06;;;;;;;58.70;34.83;;;3.90;99.90;;;;;;5049321;28;20067;-77
2022/12/19 07:17:32;;;;;;;63.77;36.33;;;4.00;99.90;;;;;;5033016;28;20943;-75
2022/12/19 07:19:58;;;;;;;64.30;36.83;;;3.90;99.90;;;;;;5048938;28;20242;-75
2022/12/19 07:22:29;;;;;;;53.67;33.57;;;3.80;99.90;;;;;;5048077;28;20061;-77
2022/12/19 07:24:55;;;;;;;55.00;32.90;;;3.90;99.90;;;;;;5048128;28;20509;-75
2022/12/19 07:27:21;;;;;;;67.07;36.80;;;3.80;99.90;;;;;;5031387;28;20041;-75
2022/12/19 07:29:47;;;;;;;59.37;37.73;;;4.10;99.90;;;;;;5049026;28;20128;-76
2022/12/19 07:32:13;;;;;;;67.37;37.80;;;3.90;99.90;;;;;;5047859;28;20191;-76
2022/12/19 07:34:38;;;;;;;57.23;36.97;;;4.00;99.90;;;;;;5049031;28;20044;-77
2022/12/19 07:37:05;;;;;;;57.80;33.93;;;4.20;99.90;;;;;;5033540;28;20579;-75
2022/12/19 07:39:31;;;;;;;56.67;34.80;;;3.90;99.90;;;;;;5048137;28;20391;-75
2022/12/19 07:41:56;;;;;;;55.20;34.27;;;4.20;99.90;;;;;;5047234;28;20044;-75
2022/12/19 07:44:22;;;;;;;62.03;35.07;;;4.20;99.90;;;;;;5049165;28;20041;-75
2022/12/19 07:46:48;;;;;;;58.57;36.97;;;4.20;99.90;;;;;;5035968;28;20044;-76
2022/12/19 07:49:13;;;;;;;66.60;37.53;;;4.10;99.90;;;;;;5049297;28;20521;-75
2022/12/19 07:51:39;;;;;;;61.70;35.67;;;4.10;99.90;;;;;;5051842;28;20505;-75
2022/12/19 07:54:05;;;;;;;63.03;40.60;;;4.20;99.90;;;;;;5050244;28;20041;-75
2022/12/19 07:56:31;;;;;;;69.50;37.43;;;4.40;99.90;;;;;;5039032;28;20037;-79
2022/12/19 07:58:56;;;;;;;67.07;35.77;;;4.30;99.90;;;;;;5048188;28;20520;-76
2022/12/19 08:01:22;;;;;;;61.50;36.57;;;4.10;99.90;;;;;;5050221;28;20378;-76
2022/12/19 08:03:47;;;;;;;63.30;35.77;;;4.20;99.90;;;;;;5049829;28;20124;-76
2022/12/19 08:06:13;;;;;;;73.63;37.67;;;4.30;99.90;;;;;;5042416;28;20037;-77
2022/12/19 08:08:39;;;;;;;72.20;39.53;;;4.30;99.90;;;;;;5044290;28;20033;-75
2022/12/19 08:11:10;;;;;;;65.67;37.47;;;4.30;99.90;;;;;;5051521;28;20036;-75
2022/12/19 08:13:35;;;;;;;65.50;37.10;;;4.30;99.90;;;;;;5056181;28;20543;-76
2022/12/19 08:16:02;;;;;;;72.20;55.83;;;4.50;99.90;;;;;;5062105;28;20119;-75
2022/12/19 08:18:28;;;;;;;58.30;35.20;;;4.60;99.90;;;;;;5045217;28;20382;-74
2022/12/19 08:20:53;;;;;;;54.47;32.60;;;4.80;99.90;;;;;;5060656;28;20041;-75
2022/12/19 08:23:20;;;;;;;55.27;33.57;;;4.50;99.90;;;;;;5055950;28;20048;-76
2022/12/19 08:25:46;;;;;;;56.33;34.60;;;4.50;99.90;;;;;;5050763;28;20036;-76
2022/12/19 08:28:11;;;;;;;57.47;33.60;;;4.60;99.90;;;;;;5033147;28;20761;-75
2022/12/19 08:30:38;;;;;;;57.23;35.43;;;4.60;99.90;;;;;;5050015;28;20045;-76
2022/12/19 08:33:04;;;;;;;54.57;39.30;;;4.70;99.90;;;;;;5056229;28;20505;-76
2022/12/19 08:35:30;;;;;;;56.50;33.07;;;4.90;99.90;;;;;;5054497;28;20044;-76
2022/12/19 08:37:57;;;;;;;49.60;31.50;;;4.80;99.90;;;;;;5011862;28;20103;-77
2022/12/19 08:40:23;;;;;;;62.33;34.53;;;4.90;99.90;;;;;;5031589;28;20479;-75
2022/12/19 08:42:49;;;;;;;54.10;32.97;;;5.00;99.90;;;;;;5027631;28;20088;-76
2022/12/19 08:45:17;;;;;;;55.67;32.77;;;4.90;99.90;;;;;;5030328;28;20118;-77
2022/12/19 08:47:43;;;;;;;48.33;31.13;;;5.00;99.90;;;;;;5012484;28;20042;-77
2022/12/19 08:50:09;;;;;;;48.50;30.63;;;4.90;99.90;;;;;;5038551;28;20044;-77
2022/12/19 08:52:34;;;;;;;50.20;29.83;;;5.20;99.90;;;;;;5046976;28;20123;-77
2022/12/19 08:55:00;;;;;;;47.87;31.07;;;4.90;99.90;;;;;;5046779;28;20125;-76
2022/12/19 08:57:26;;;;;;;54.43;34.27;;;5.00;99.90;;;;;;5031889;28;20144;-77
2022/12/19 08:59:52;;;;;;;48.40;32.60;;;5.10;99.90;;;;;;5046709;28;20132;-76
2022/12/19 09:02:18;;;;;;;55.80;32.87;;;5.10;99.90;;;;;;5034709;28;20052;-79
2022/12/19 09:04:43;;;;;;;49.07;31.57;;;5.00;99.90;;;;;;5043485;28;20600;-75
2022/12/19 09:07:09;;;;;;;51.70;33.70;;;5.10;99.90;;;;;;5027386;28;20033;-77
2022/12/19 09:09:35;;;;;;;46.73;32.00;;;5.40;99.90;;;;;;5038267;28;20175;-75
2022/12/19 09:12:00;;;;;;;48.57;33.83;;;5.40;99.90;;;;;;5047941;28;20051;-77
2022/12/19 09:14:26;;;;;;;52.07;33.00;;;5.60;99.90;;;;;;5046560;28;20482;-75
2022/12/19 09:16:51;;;;;;;48.17;35.20;;;5.50;99.90;;;;;;5019555;28;20041;-76
2022/12/19 09:19:17;;;;;;;45.57;32.03;;;5.60;99.90;;;;;;5027179;28;20105;-75
2022/12/19 09:21:43;;;;;;;44.83;31.73;;;5.60;99.90;;;;;;5045896;28;20041;-76
2022/12/19 09:24:10;;;;;;;51.97;31.90;;;5.70;99.90;;;;;;5047580;28;20151;-76
2022/12/19 09:26:38;;;;;;;45.70;32.80;;;5.80;99.90;;;;;;5015064;28;20067;-76
2022/12/19 09:29:05;;;;;;;47.97;34.50;;;5.80;99.90;;;;;;5042613;28;20048;-80
2022/12/19 09:31:31;;;;;;;48.90;33.57;;;5.90;99.90;;;;;;5045527;28;20124;-79
2022/12/19 09:33:58;;;;;;;45.03;31.80;;;6.00;99.90;;;;;;5047819;28;20128;-76
2022/12/19 09:36:24;;;;;;;44.83;31.80;;;5.90;99.90;;;;;;5034515;28;20088;-76
2022/12/19 09:38:53;;;;;;;45.83;32.97;;;5.80;99.90;;;;;;5043446;28;20494;-76
2022/12/19 09:41:37;;;;;;;46.93;32.43;;;5.80;99.90;;;;;;5046075;28;20053;-76
2022/12/19 09:44:05;;;;;;;47.00;32.40;;;5.90;99.90;;;;;;5044048;28;20048;-78
2022/12/19 09:46:43;;;;;;;47.03;33.00;;;5.80;99.90;;;;;;5016937;28;20489;-77
2022/12/19 09:49:12;;;;;;;43.47;33.63;;;5.80;99.90;;;;;;5024751;28;20045;-76
2022/12/19 09:51:48;;;;;;;45.27;31.90;;;5.90;99.90;;;;;;5029929;28;20049;-80
2022/12/19 09:54:22;;;;;;;49.67;34.80;;;5.90;99.90;;;;;;5041880;28;20044;-76
2022/12/19 09:56:56;;;;;;;48.60;34.97;;;6.00;99.90;;;;;;5031378;28;20771;-76
2022/12/19 09:59:39;;;;;;;48.17;34.37;;;6.00;99.90;;;;;;5043020;28;20060;-77
2022/12/19 10:02:28;;;;;;;48.80;32.40;;;6.10;99.90;;;;;;5045315;28;20131;-77
2022/12/19 10:05:18;;;;;;;46.97;34.27;;;6.10;99.90;;;;;;5042194;28;20048;-76
2022/12/19 10:07:45;;;;;;;44.53;32.73;;;6.30;99.90;;;;;;5022865;28;20069;-78
2022/12/19 10:10:41;;;;;;;41.37;33.33;;;6.40;99.90;;;;;;5028676;28;20090;-77
2022/12/19 10:13:12;;;;;;;50.47;33.50;;;6.30;99.90;;;;;;5042819;28;20055;-75
2022/12/19 10:15:47;;;;;;;44.20;33.97;;;6.30;99.90;;;;;;5044939;28;20068;-74
2022/12/19 10:18:27;;;;;;;41.73;31.30;;;6.40;99.90;;;;;;5018467;28;20383;-78
2022/12/19 10:21:03;;;;;;;47.17;42.10;;;6.50;99.90;;;;;;5031068;28;20049;-77
2022/12/19 10:24:13;;;;;;;42.37;31.87;;;6.40;99.90;;;;;;5044423;28;20048;-76
2022/12/19 10:26:53;;;;;;;41.90;32.13;;;6.60;99.90;;;;;;5015162;28;20056;-76
2022/12/19 10:29:35;;;;;;;38.33;32.80;;;6.70;99.90;;;;;;5042861;28;20124;-76
2022/12/19 10:32:12;;;;;;;40.73;29.80;;;6.70;99.90;;;;;;5040785;28;20053;-76
2022/12/19 10:34:42;;;;;;;36.13;26.17;;;6.80;99.90;;;;;;5031510;28;20052;-80
2022/12/19 10:37:38;;;;;;;35.47;27.63;;;6.70;99.90;;;;;;5028930;28;20078;-76
2022/12/19 10:40:13;;;;;;;38.20;28.97;;;7.00;99.90;;;;;;5038194;28;20142;-80
2022/12/19 10:43:01;;;;;;;35.70;27.03;;;6.80;99.90;;;;;;5029635;28;20217;-76
2022/12/19 10:45:37;;;;;;;38.30;30.10;;;6.90;99.90;;;;;;5031803;28;20041;-76
2022/12/19 10:48:03;;;;;;;35.50;25.60;;;6.90;99.90;;;;;;5009796;28;20045;-77
2022/12/19 10:50:29;;;;;;;35.37;28.33;;;6.90;99.90;;;;;;5029887;28;20047;-77
2022/12/19 10:53:07;;;;;;;34.50;27.37;;;6.90;99.90;;;;;;5027545;28;20061;-76
2022/12/19 10:55:37;;;;;;;38.43;30.13;;;7.00;99.90;;;;;;5029058;28;20045;-80
2022/12/19 10:58:20;;;;;;;34.53;25.10;;;7.10;99.90;;;;;;5009875;28;20050;-78
2022/12/19 11:01:01;;;;;;;29.37;22.67;;;7.20;99.90;;;;;;5030073;28;20574;-77
2022/12/19 11:03:28;;;;;;;32.72;26.48;;;7.20;99.90;;;;;;5028560;28;20048;-77
2022/12/19 11:05:55;;;;;;;29.80;24.87;;;7.20;99.90;;;;;;5033863;28;20049;-77
2022/12/19 11:08:35;;;;;;;34.23;26.23;;;7.40;99.90;;;;;;5012543;28;20479;-77
2022/12/19 11:11:04;;;;;;;39.83;29.73;;;7.20;99.90;;;;;;5028129;28;20407;-75
2022/12/19 11:13:40;;;;;;;30.80;25.10;;;7.40;99.90;;;;;;5028881;28;20037;-75
2022/12/19 11:16:08;;;;;;;28.37;23.30;;;7.30;99.90;;;;;;5032368;28;20136;-81
2022/12/19 11:18:43;;;;;;;26.63;22.87;;;7.40;99.90;;;;;;5051514;28;20187;-76
2022/12/19 11:21:29;;;;;;;26.80;22.50;;;7.50;99.90;;;;;;5045973;28;20059;-77
2022/12/19 11:23:58;;;;;;;24.60;21.87;;;7.50;99.90;;;;;;5047696;28;20041;-76
2022/12/19 11:26:39;;;;;;;24.00;20.77;;;7.60;99.90;;;;;;5038089;28;20552;-75
2022/12/19 11:29:19;;;;;;;24.67;21.88;;;7.50;99.90;;;;;;5045682;28;20044;-80
2022/12/19 11:31:47;;;;;;;23.90;20.08;;;7.70;99.90;;;;;;5054225;28;20098;-74
2022/12/19 11:34:22;;;;;;;25.60;20.63;;;7.50;99.90;;;;;;5046077;28;20128;-75
2022/12/19 11:36:53;;;;;;;24.27;19.57;;;7.60;99.90;;;;;;5033940;28;20051;-76
2022/12/19 11:39:42;;;;;;;25.70;19.45;;;7.60;99.90;;;;;;5046895;28;20055;-75
2022/12/19 11:42:25;;;;;;;25.40;22.50;;;7.70;99.90;;;;;;5028123;28;20128;-75
2022/12/19 11:44:57;;;;;;;21.60;18.93;;;7.70;99.90;;;;;;5036774;28;20061;-75
2022/12/19 11:47:31;;;;;;;30.40;27.80;;;7.80;99.90;;;;;;5030731;28;20041;-76
2022/12/19 11:50:27;;;;;;;24.33;21.40;;;7.90;99.90;;;;;;5044477;28;20048;-76
2022/12/19 11:53:24;;;;;;;21.60;19.13;;;7.90;99.90;;;;;;5021222;28;20060;-78
2022/12/19 11:55:53;;;;;;;23.33;20.00;;;7.80;99.90;;;;;;5036696;28;20064;-76
2022/12/19 11:58:21;;;;;;;23.57;18.67;;;7.80;99.90;;;;;;5017225;28;20462;-80
2022/12/19 12:01:29;;;;;;;23.50;20.87;;;7.80;99.90;;;;;;5035193;28;20049;-75
2022/12/19 12:04:26;;;;;;;21.53;18.00;;;7.80;99.90;;;;;;5025457;28;20152;-76
2022/12/19 12:06:54;;;;;;;38.03;34.43;;;7.90;99.90;;;;;;5013859;28;20052;-76
2022/12/19 12:09:55;;;;;;;24.90;22.70;;;7.90;99.90;;;;;;5038283;28;20067;-80
2022/12/19 12:12:28;;;;;;;20.38;18.05;;;8.00;99.90;;;;;;5044648;28;20109;-76
2022/12/19 12:15:33;;;;;;;22.00;18.07;;;8.00;99.90;;;;;;5038157;28;20045;-76
2022/12/19 12:18:19;;;;;;;22.17;20.07;;;7.90;99.90;;;;;;5018511;28;20076;-77
2022/12/19 12:21:02;;;;;;;21.63;19.60;;;8.00;99.90;;;;;;5040039;28;20045;-76
2022/12/19 12:23:33;;;;;;;20.43;16.37;;;8.20;99.90;;;;;;5043241;28;20045;-81
2022/12/19 12:26:21;;;;;;;19.45;17.08;;;8.10;99.90;;;;;;5050490;28;20553;-76
2022/12/19 12:29:12;;;;;;;23.37;20.77;;;8.20;99.90;;;;;;5026261;28;20045;-75
2022/12/19 12:32:08;;;;;;;24.17;21.63;;;8.00;99.90;;;;;;5046835;28;20041;-76
2022/12/19 12:35:00;;;;;;;23.93;21.17;;;8.10;99.90;;;;;;5046479;28;20559;-76
2022/12/19 12:38:05;;;;;;;21.77;18.43;;;8.00;99.90;;;;;;5032826;28;20048;-77
2022/12/19 12:41:02;;;;;;;24.20;21.60;;;8.10;99.90;;;;;;5035936;28;20399;-76
2022/12/19 12:43:30;;;;;;;24.87;20.07;;;8.10;99.90;;;;;;5035015;28;20462;-77
2022/12/19 12:45:56;;;;;;;27.00;24.43;;;7.90;99.90;;;;;;5043815;28;20049;-77
2022/12/19 12:48:30;;;;;;;24.77;22.27;;;7.90;99.90;;;;;;5026663;28;20060;-75
2022/12/19 12:50:57;;;;;;;23.43;19.27;;;7.90;99.90;;;;;;5042393;28;20045;-77
2022/12/19 12:53:34;;;;;;;24.87;18.50;;;8.00;99.90;;;;;;5040778;28;20363;-76
2022/12/19 12:56:02;;;;;;;23.03;18.00;;;7.80;99.90;;;;;;5040016;28;20103;-75
2022/12/19 12:58:59;;;;;;;21.43;19.13;;;8.00;99.90;;;;;;5022812;28;20897;-77
2022/12/19 13:01:27;;;;;;;24.13;21.00;;;8.00;99.90;;;;;;5038534;28;20076;-75